sensor_id;sensor_type;location;lat;lon;timestamp;P1;durP1;ratioP1;P2;durP2;ratioP2
77409;SDS011;66481;51.332;22.804;2023-11-21T00:01:25;28.67;;;11.57;;
77409;SDS011;66481;51.332;22.804;2023-11-21T00:05:26;21.15;;;9.82;;
77409;SDS011;66481;51.332;22.804;2023-11-21T00:09:27;22.90;;;10.68;;
77409;SDS011;66481;51.332;22.804;2023-11-21T00:13:28;23.38;;;10.68;;
77409;SDS011;66481;51.332;22.804;2023-11-21T00:17:30;18.95;;;8.25;;
77409;SDS011;66481;51.332;22.804;2023-11-21T00:21:30;26.60;;;11.05;;
77409;SDS011;66481;51.332;22.804;2023-11-21T00:25:31;37.33;;;12.10;;
77409;SDS011;66481;51.332;22.804;2023-11-21T00:29:32;26.98;;;11.13;;
77409;SDS011;66481;51.332;22.804;2023-11-21T00:33:34;24.05;;;9.98;;
77409;SDS011;66481;51.332;22.804;2023-11-21T00:37:35;14.07;;;8.85;;
77409;SDS011;66481;51.332;22.804;2023-11-21T00:41:37;27.75;;;10.95;;
77409;SDS011;66481;51.332;22.804;2023-11-21T00:45:37;15.73;;;7.57;;
77409;SDS011;66481;51.332;22.804;2023-11-21T00:49:41;24.63;;;9.15;;
77409;SDS011;66481;51.332;22.804;2023-11-21T00:53:42;25.27;;;9.68;;
77409;SDS011;66481;51.332;22.804;2023-11-21T00:57:43;23.75;;;10.93;;
77409;SDS011;66481;51.332;22.804;2023-11-21T01:01:44;34.70;;;12.13;;
77409;SDS011;66481;51.332;22.804;2023-11-21T01:05:45;38.42;;;10.80;;
77409;SDS011;66481;51.332;22.804;2023-11-21T01:09:46;46.50;;;14.70;;
77409;SDS011;66481;51.332;22.804;2023-11-21T01:13:47;27.65;;;11.73;;
77409;SDS011;66481;51.332;22.804;2023-11-21T01:17:47;31.38;;;12.70;;
77409;SDS011;66481;51.332;22.804;2023-11-21T01:21:48;27.92;;;11.82;;
77409;SDS011;66481;51.332;22.804;2023-11-21T01:25:49;27.00;;;9.57;;
77409;SDS011;66481;51.332;22.804;2023-11-21T01:29:52;28.92;;;12.45;;
77409;SDS011;66481;51.332;22.804;2023-11-21T01:33:54;43.85;;;13.05;;
77409;SDS011;66481;51.332;22.804;2023-11-21T01:37:55;56.40;;;18.08;;
77409;SDS011;66481;51.332;22.804;2023-11-21T01:41:57;33.10;;;8.82;;
77409;SDS011;66481;51.332;22.804;2023-11-21T01:46:00;41.30;;;12.93;;
77409;SDS011;66481;51.332;22.804;2023-11-21T01:50:02;17.05;;;7.22;;
77409;SDS011;66481;51.332;22.804;2023-11-21T01:54:05;27.15;;;9.45;;
77409;SDS011;66481;51.332;22.804;2023-11-21T01:58:07;18.90;;;7.25;;
77409;SDS011;66481;51.332;22.804;2023-11-21T02:02:09;20.60;;;9.23;;
77409;SDS011;66481;51.332;22.804;2023-11-21T02:06:10;40.17;;;13.65;;
77409;SDS011;66481;51.332;22.804;2023-11-21T02:10:12;27.17;;;11.32;;
77409;SDS011;66481;51.332;22.804;2023-11-21T02:14:15;21.90;;;9.77;;
77409;SDS011;66481;51.332;22.804;2023-11-21T02:18:17;20.38;;;8.80;;
77409;SDS011;66481;51.332;22.804;2023-11-21T02:22:18;26.77;;;10.80;;
77409;SDS011;66481;51.332;22.804;2023-11-21T02:26:20;41.25;;;12.15;;
77409;SDS011;66481;51.332;22.804;2023-11-21T02:30:21;34.72;;;13.75;;
77409;SDS011;66481;51.332;22.804;2023-11-21T02:34:23;44.55;;;17.02;;
77409;SDS011;66481;51.332;22.804;2023-11-21T02:38:25;41.38;;;14.60;;
77409;SDS011;66481;51.332;22.804;2023-11-21T02:42:26;14.38;;;7.72;;
77409;SDS011;66481;51.332;22.804;2023-11-21T02:46:27;31.70;;;10.63;;
77409;SDS011;66481;51.332;22.804;2023-11-21T02:50:28;35.60;;;11.73;;
77409;SDS011;66481;51.332;22.804;2023-11-21T02:54:30;23.42;;;8.93;;
77409;SDS011;66481;51.332;22.804;2023-11-21T02:58:31;19.75;;;9.15;;
77409;SDS011;66481;51.332;22.804;2023-11-21T03:02:33;32.13;;;11.32;;
77409;SDS011;66481;51.332;22.804;2023-11-21T03:06:37;24.98;;;9.95;;
77409;SDS011;66481;51.332;22.804;2023-11-21T03:10:38;20.17;;;8.50;;
77409;SDS011;66481;51.332;22.804;2023-11-21T03:14:39;12.60;;;5.97;;
77409;SDS011;66481;51.332;22.804;2023-11-21T03:18:40;25.45;;;9.00;;
77409;SDS011;66481;51.332;22.804;2023-11-21T03:22:41;21.00;;;7.35;;
77409;SDS011;66481;51.332;22.804;2023-11-21T03:26:44;19.52;;;7.07;;
77409;SDS011;66481;51.332;22.804;2023-11-21T03:30:45;21.73;;;8.35;;
77409;SDS011;66481;51.332;22.804;2023-11-21T03:34:56;19.17;;;6.88;;
77409;SDS011;66481;51.332;22.804;2023-11-21T03:38:58;15.00;;;5.97;;
77409;SDS011;66481;51.332;22.804;2023-11-21T03:42:59;12.77;;;6.40;;
77409;SDS011;66481;51.332;22.804;2023-11-21T03:47:00;10.27;;;4.78;;
77409;SDS011;66481;51.332;22.804;2023-11-21T03:51:00;21.38;;;8.13;;
77409;SDS011;66481;51.332;22.804;2023-11-21T03:55:01;14.25;;;7.05;;
77409;SDS011;66481;51.332;22.804;2023-11-21T03:59:03;13.00;;;5.72;;
77409;SDS011;66481;51.332;22.804;2023-11-21T04:03:04;18.38;;;7.57;;
77409;SDS011;66481;51.332;22.804;2023-11-21T04:07:05;19.73;;;8.23;;
77409;SDS011;66481;51.332;22.804;2023-11-21T04:11:06;12.13;;;6.85;;
77409;SDS011;66481;51.332;22.804;2023-11-21T04:15:07;9.95;;;5.13;;
77409;SDS011;66481;51.332;22.804;2023-11-21T04:19:09;10.85;;;4.80;;
77409;SDS011;66481;51.332;22.804;2023-11-21T04:23:11;13.23;;;5.32;;
77409;SDS011;66481;51.332;22.804;2023-11-21T04:27:14;16.10;;;7.13;;
77409;SDS011;66481;51.332;22.804;2023-11-21T04:31:15;11.93;;;5.35;;
77409;SDS011;66481;51.332;22.804;2023-11-21T04:35:16;7.18;;;4.07;;
77409;SDS011;66481;51.332;22.804;2023-11-21T04:39:18;17.30;;;5.97;;
77409;SDS011;66481;51.332;22.804;2023-11-21T04:43:20;25.10;;;8.15;;
77409;SDS011;66481;51.332;22.804;2023-11-21T04:47:22;17.90;;;7.80;;
77409;SDS011;66481;51.332;22.804;2023-11-21T04:51:24;14.18;;;5.45;;
77409;SDS011;66481;51.332;22.804;2023-11-21T04:55:25;13.13;;;5.90;;
77409;SDS011;66481;51.332;22.804;2023-11-21T04:59:28;9.80;;;5.57;;
77409;SDS011;66481;51.332;22.804;2023-11-21T05:03:29;19.80;;;7.90;;
77409;SDS011;66481;51.332;22.804;2023-11-21T05:07:30;11.30;;;5.68;;
77409;SDS011;66481;51.332;22.804;2023-11-21T05:11:33;12.32;;;6.88;;
77409;SDS011;66481;51.332;22.804;2023-11-21T05:15:33;19.15;;;9.18;;
77409;SDS011;66481;51.332;22.804;2023-11-21T05:19:35;11.85;;;7.38;;
77409;SDS011;66481;51.332;22.804;2023-11-21T05:23:36;18.73;;;8.57;;
77409;SDS011;66481;51.332;22.804;2023-11-21T05:27:38;9.23;;;4.68;;
77409;SDS011;66481;51.332;22.804;2023-11-21T05:31:39;18.95;;;8.10;;
77409;SDS011;66481;51.332;22.804;2023-11-21T05:35:42;10.75;;;4.88;;
77409;SDS011;66481;51.332;22.804;2023-11-21T05:39:43;12.25;;;6.22;;
77409;SDS011;66481;51.332;22.804;2023-11-21T05:43:44;16.55;;;7.55;;
77409;SDS011;66481;51.332;22.804;2023-11-21T05:47:46;9.68;;;4.35;;
77409;SDS011;66481;51.332;22.804;2023-11-21T05:51:47;4.90;;;4.13;;
77409;SDS011;66481;51.332;22.804;2023-11-21T05:55:48;8.48;;;4.78;;
77409;SDS011;66481;51.332;22.804;2023-11-21T05:59:49;8.32;;;4.68;;
77409;SDS011;66481;51.332;22.804;2023-11-21T06:03:50;4.95;;;3.92;;
77409;SDS011;66481;51.332;22.804;2023-11-21T06:07:52;9.43;;;4.32;;
77409;SDS011;66481;51.332;22.804;2023-11-21T06:11:55;6.30;;;3.70;;
77409;SDS011;66481;51.332;22.804;2023-11-21T06:15:56;6.43;;;3.65;;
77409;SDS011;66481;51.332;22.804;2023-11-21T06:19:57;5.85;;;2.88;;
77409;SDS011;66481;51.332;22.804;2023-11-21T06:23:58;7.72;;;3.72;;
77409;SDS011;66481;51.332;22.804;2023-11-21T06:27:59;7.40;;;4.18;;
77409;SDS011;66481;51.332;22.804;2023-11-21T06:32:00;6.30;;;3.00;;
77409;SDS011;66481;51.332;22.804;2023-11-21T06:36:01;6.18;;;3.35;;
77409;SDS011;66481;51.332;22.804;2023-11-21T06:40:03;2.72;;;2.47;;
77409;SDS011;66481;51.332;22.804;2023-11-21T06:44:05;6.82;;;3.72;;
77409;SDS011;66481;51.332;22.804;2023-11-21T06:48:06;4.70;;;2.40;;
77409;SDS011;66481;51.332;22.804;2023-11-21T06:52:07;4.15;;;2.42;;
77409;SDS011;66481;51.332;22.804;2023-11-21T06:56:15;3.85;;;2.60;;
77409;SDS011;66481;51.332;22.804;2023-11-21T07:00:19;3.65;;;3.00;;
77409;SDS011;66481;51.332;22.804;2023-11-21T07:04:20;6.85;;;3.25;;
77409;SDS011;66481;51.332;22.804;2023-11-21T07:08:22;3.55;;;2.40;;
77409;SDS011;66481;51.332;22.804;2023-11-21T07:12:23;3.90;;;2.30;;
77409;SDS011;66481;51.332;22.804;2023-11-21T07:16:26;4.80;;;3.17;;
77409;SDS011;66481;51.332;22.804;2023-11-21T07:20:28;6.07;;;4.30;;
77409;SDS011;66481;51.332;22.804;2023-11-21T07:24:31;4.63;;;2.97;;
77409;SDS011;66481;51.332;22.804;2023-11-21T07:28:33;6.45;;;4.10;;
77409;SDS011;66481;51.332;22.804;2023-11-21T07:32:41;6.80;;;3.30;;
77409;SDS011;66481;51.332;22.804;2023-11-21T07:36:43;8.30;;;5.15;;
77409;SDS011;66481;51.332;22.804;2023-11-21T07:40:44;4.53;;;4.13;;
77409;SDS011;66481;51.332;22.804;2023-11-21T07:44:45;6.60;;;3.35;;
77409;SDS011;66481;51.332;22.804;2023-11-21T07:48:47;7.75;;;5.22;;
77409;SDS011;66481;51.332;22.804;2023-11-21T07:52:48;9.85;;;6.50;;
77409;SDS011;66481;51.332;22.804;2023-11-21T07:56:50;11.98;;;6.57;;
77409;SDS011;66481;51.332;22.804;2023-11-21T08:00:51;9.40;;;5.53;;
77409;SDS011;66481;51.332;22.804;2023-11-21T08:04:52;4.40;;;3.30;;
77409;SDS011;66481;51.332;22.804;2023-11-21T08:08:53;6.65;;;4.30;;
77409;SDS011;66481;51.332;22.804;2023-11-21T08:12:54;8.02;;;5.95;;
77409;SDS011;66481;51.332;22.804;2023-11-21T08:16:55;11.48;;;7.20;;
77409;SDS011;66481;51.332;22.804;2023-11-21T08:20:58;10.55;;;5.72;;
77409;SDS011;66481;51.332;22.804;2023-11-21T08:24:59;7.68;;;3.83;;
77409;SDS011;66481;51.332;22.804;2023-11-21T08:29:00;11.02;;;5.97;;
77409;SDS011;66481;51.332;22.804;2023-11-21T08:33:01;11.43;;;6.75;;
77409;SDS011;66481;51.332;22.804;2023-11-21T08:37:03;11.93;;;6.97;;
77409;SDS011;66481;51.332;22.804;2023-11-21T08:41:05;6.82;;;5.28;;
77409;SDS011;66481;51.332;22.804;2023-11-21T08:45:09;16.17;;;8.90;;
77409;SDS011;66481;51.332;22.804;2023-11-21T08:49:11;7.28;;;5.68;;
77409;SDS011;66481;51.332;22.804;2023-11-21T08:53:12;14.27;;;7.72;;
77409;SDS011;66481;51.332;22.804;2023-11-21T08:57:13;10.68;;;7.00;;
77409;SDS011;66481;51.332;22.804;2023-11-21T09:01:14;14.35;;;8.02;;
77409;SDS011;66481;51.332;22.804;2023-11-21T09:05:15;15.13;;;8.13;;
77409;SDS011;66481;51.332;22.804;2023-11-21T09:09:17;18.90;;;9.45;;
77409;SDS011;66481;51.332;22.804;2023-11-21T09:13:20;12.88;;;6.53;;
77409;SDS011;66481;51.332;22.804;2023-11-21T09:17:21;10.57;;;6.72;;
77409;SDS011;66481;51.332;22.804;2023-11-21T09:21:22;14.73;;;9.27;;
77409;SDS011;66481;51.332;22.804;2023-11-21T09:25:24;14.95;;;7.55;;
77409;SDS011;66481;51.332;22.804;2023-11-21T09:29:25;9.85;;;6.35;;
77409;SDS011;66481;51.332;22.804;2023-11-21T09:33:27;15.23;;;7.95;;
77409;SDS011;66481;51.332;22.804;2023-11-21T09:37:28;16.42;;;8.52;;
77409;SDS011;66481;51.332;22.804;2023-11-21T09:41:32;20.38;;;10.65;;
77409;SDS011;66481;51.332;22.804;2023-11-21T09:45:40;16.10;;;8.50;;
77409;SDS011;66481;51.332;22.804;2023-11-21T09:49:46;16.63;;;8.98;;
77409;SDS011;66481;51.332;22.804;2023-11-21T09:53:50;18.42;;;9.70;;
77409;SDS011;66481;51.332;22.804;2023-11-21T09:57:55;12.13;;;6.80;;
77409;SDS011;66481;51.332;22.804;2023-11-21T10:01:57;15.95;;;9.25;;
77409;SDS011;66481;51.332;22.804;2023-11-21T10:05:59;13.05;;;6.35;;
77409;SDS011;66481;51.332;22.804;2023-11-21T10:10:02;15.32;;;8.65;;
77409;SDS011;66481;51.332;22.804;2023-11-21T10:14:04;13.32;;;6.97;;
77409;SDS011;66481;51.332;22.804;2023-11-21T10:18:06;10.93;;;6.85;;
77409;SDS011;66481;51.332;22.804;2023-11-21T10:22:09;11.90;;;6.13;;
77409;SDS011;66481;51.332;22.804;2023-11-21T10:26:11;7.60;;;4.97;;
77409;SDS011;66481;51.332;22.804;2023-11-21T10:30:17;11.23;;;5.88;;
77409;SDS011;66481;51.332;22.804;2023-11-21T10:34:19;12.98;;;6.85;;
77409;SDS011;66481;51.332;22.804;2023-11-21T10:38:21;12.93;;;7.47;;
77409;SDS011;66481;51.332;22.804;2023-11-21T10:42:25;14.75;;;7.47;;
77409;SDS011;66481;51.332;22.804;2023-11-21T10:46:28;13.75;;;8.25;;
77409;SDS011;66481;51.332;22.804;2023-11-21T10:50:32;19.85;;;9.85;;
77409;SDS011;66481;51.332;22.804;2023-11-21T10:54:35;13.00;;;7.93;;
77409;SDS011;66481;51.332;22.804;2023-11-21T10:58:38;15.95;;;8.15;;
77409;SDS011;66481;51.332;22.804;2023-11-21T11:02:40;17.88;;;8.80;;
77409;SDS011;66481;51.332;22.804;2023-11-21T11:06:42;15.93;;;8.60;;
77409;SDS011;66481;51.332;22.804;2023-11-21T11:10:50;14.23;;;9.55;;
77409;SDS011;66481;51.332;22.804;2023-11-21T11:14:51;17.85;;;8.45;;
77409;SDS011;66481;51.332;22.804;2023-11-21T11:18:52;18.52;;;9.10;;
77409;SDS011;66481;51.332;22.804;2023-11-21T11:36:28;14.73;;;8.27;;
77409;SDS011;66481;51.332;22.804;2023-11-21T11:40:39;17.30;;;8.60;;
77409;SDS011;66481;51.332;22.804;2023-11-21T11:44:52;17.35;;;9.73;;
77409;SDS011;66481;51.332;22.804;2023-11-21T11:49:03;18.83;;;10.32;;
77409;SDS011;66481;51.332;22.804;2023-11-21T11:53:12;14.88;;;8.35;;
77409;SDS011;66481;51.332;22.804;2023-11-21T11:57:14;18.77;;;9.57;;
77409;SDS011;66481;51.332;22.804;2023-11-21T12:01:21;18.90;;;10.43;;
77409;SDS011;66481;51.332;22.804;2023-11-21T12:05:23;18.80;;;9.00;;
77409;SDS011;66481;51.332;22.804;2023-11-21T12:09:28;24.08;;;10.73;;
77409;SDS011;66481;51.332;22.804;2023-11-21T12:13:34;21.08;;;10.07;;
77409;SDS011;66481;51.332;22.804;2023-11-21T12:17:35;20.00;;;11.45;;
77409;SDS011;66481;51.332;22.804;2023-11-21T12:21:36;24.20;;;11.48;;
77409;SDS011;66481;51.332;22.804;2023-11-21T12:25:37;22.88;;;11.18;;
77409;SDS011;66481;51.332;22.804;2023-11-21T12:29:40;22.25;;;10.85;;
77409;SDS011;66481;51.332;22.804;2023-11-21T12:33:41;18.45;;;11.50;;
77409;SDS011;66481;51.332;22.804;2023-11-21T12:37:42;26.52;;;11.13;;
77409;SDS011;66481;51.332;22.804;2023-11-21T12:41:43;23.40;;;11.65;;
77409;SDS011;66481;51.332;22.804;2023-11-21T12:45:45;26.50;;;12.43;;
77409;SDS011;66481;51.332;22.804;2023-11-21T12:49:46;24.33;;;11.55;;
77409;SDS011;66481;51.332;22.804;2023-11-21T12:53:50;24.38;;;13.50;;
77409;SDS011;66481;51.332;22.804;2023-11-21T12:57:52;26.38;;;13.88;;
77409;SDS011;66481;51.332;22.804;2023-11-21T13:02:07;31.98;;;15.43;;
77409;SDS011;66481;51.332;22.804;2023-11-21T13:06:09;30.83;;;14.02;;
77409;SDS011;66481;51.332;22.804;2023-11-21T13:10:10;33.83;;;16.20;;
77409;SDS011;66481;51.332;22.804;2023-11-21T13:14:12;28.27;;;14.80;;
77409;SDS011;66481;51.332;22.804;2023-11-21T13:18:13;26.38;;;13.55;;
77409;SDS011;66481;51.332;22.804;2023-11-21T13:22:13;27.13;;;14.35;;
77409;SDS011;66481;51.332;22.804;2023-11-21T13:26:14;27.85;;;12.80;;
77409;SDS011;66481;51.332;22.804;2023-11-21T13:30:16;32.03;;;14.63;;
77409;SDS011;66481;51.332;22.804;2023-11-21T13:34:23;32.00;;;14.80;;
77409;SDS011;66481;51.332;22.804;2023-11-21T13:38:27;29.30;;;14.23;;
77409;SDS011;66481;51.332;22.804;2023-11-21T13:42:33;29.38;;;14.32;;
77409;SDS011;66481;51.332;22.804;2023-11-21T13:46:34;29.42;;;15.15;;
77409;SDS011;66481;51.332;22.804;2023-11-21T13:50:37;32.45;;;14.88;;
77409;SDS011;66481;51.332;22.804;2023-11-21T13:54:42;21.48;;;11.02;;
77409;SDS011;66481;51.332;22.804;2023-11-21T13:58:44;25.58;;;14.45;;
77409;SDS011;66481;51.332;22.804;2023-11-21T14:02:48;30.38;;;12.18;;
77409;SDS011;66481;51.332;22.804;2023-11-21T14:06:50;20.17;;;12.02;;
77409;SDS011;66481;51.332;22.804;2023-11-21T14:10:54;22.73;;;12.82;;
77409;SDS011;66481;51.332;22.804;2023-11-21T14:15:00;32.80;;;16.05;;
77409;SDS011;66481;51.332;22.804;2023-11-21T14:19:03;26.70;;;11.55;;
77409;SDS011;66481;51.332;22.804;2023-11-21T14:23:10;21.13;;;11.38;;
77409;SDS011;66481;51.332;22.804;2023-11-21T14:27:11;19.15;;;10.98;;
77409;SDS011;66481;51.332;22.804;2023-11-21T14:31:12;24.02;;;12.25;;
77409;SDS011;66481;51.332;22.804;2023-11-21T14:35:16;26.58;;;13.15;;
77409;SDS011;66481;51.332;22.804;2023-11-21T14:39:17;23.92;;;12.00;;
77409;SDS011;66481;51.332;22.804;2023-11-21T14:43:26;22.40;;;12.52;;
77409;SDS011;66481;51.332;22.804;2023-11-21T14:47:30;22.30;;;10.93;;
77409;SDS011;66481;51.332;22.804;2023-11-21T14:51:33;24.73;;;11.50;;
77409;SDS011;66481;51.332;22.804;2023-11-21T14:55:44;15.20;;;8.55;;
77409;SDS011;66481;51.332;22.804;2023-11-21T14:59:51;19.65;;;12.63;;
77409;SDS011;66481;51.332;22.804;2023-11-21T15:03:52;25.33;;;11.68;;
77409;SDS011;66481;51.332;22.804;2023-11-21T15:07:54;21.85;;;11.88;;
77409;SDS011;66481;51.332;22.804;2023-11-21T15:12:12;24.73;;;10.60;;
77409;SDS011;66481;51.332;22.804;2023-11-21T15:16:16;19.20;;;10.82;;
77409;SDS011;66481;51.332;22.804;2023-11-21T15:20:17;16.85;;;9.38;;
77409;SDS011;66481;51.332;22.804;2023-11-21T15:28:22;21.70;;;11.60;;
77409;SDS011;66481;51.332;22.804;2023-11-21T15:32:25;25.90;;;12.23;;
77409;SDS011;66481;51.332;22.804;2023-11-21T15:36:26;26.08;;;13.00;;
77409;SDS011;66481;51.332;22.804;2023-11-21T15:40:28;28.85;;;13.30;;
77409;SDS011;66481;51.332;22.804;2023-11-21T15:44:29;22.05;;;11.13;;
77409;SDS011;66481;51.332;22.804;2023-11-21T15:48:37;22.92;;;12.35;;
77409;SDS011;66481;51.332;22.804;2023-11-21T15:52:47;23.58;;;10.77;;
77409;SDS011;66481;51.332;22.804;2023-11-21T15:56:49;22.27;;;12.23;;
77409;SDS011;66481;51.332;22.804;2023-11-21T16:00:52;25.77;;;12.43;;
77409;SDS011;66481;51.332;22.804;2023-11-21T16:04:54;20.83;;;11.25;;
77409;SDS011;66481;51.332;22.804;2023-11-21T16:08:55;21.02;;;10.77;;
77409;SDS011;66481;51.332;22.804;2023-11-21T16:12:59;15.95;;;8.85;;
77409;SDS011;66481;51.332;22.804;2023-11-21T16:16:59;23.48;;;12.20;;
77409;SDS011;66481;51.332;22.804;2023-11-21T16:21:01;24.33;;;12.48;;
77409;SDS011;66481;51.332;22.804;2023-11-21T16:25:03;23.15;;;11.90;;
77409;SDS011;66481;51.332;22.804;2023-11-21T16:29:05;20.23;;;10.68;;
77409;SDS011;66481;51.332;22.804;2023-11-21T16:33:07;21.95;;;11.15;;
77409;SDS011;66481;51.332;22.804;2023-11-21T16:37:08;23.08;;;10.90;;
77409;SDS011;66481;51.332;22.804;2023-11-21T16:41:10;21.13;;;11.00;;
77409;SDS011;66481;51.332;22.804;2023-11-21T16:45:11;26.88;;;11.90;;
77409;SDS011;66481;51.332;22.804;2023-11-21T16:49:13;20.27;;;11.52;;
77409;SDS011;66481;51.332;22.804;2023-11-21T16:53:16;20.27;;;10.15;;
77409;SDS011;66481;51.332;22.804;2023-11-21T16:57:17;23.30;;;9.98;;
77409;SDS011;66481;51.332;22.804;2023-11-21T17:01:19;21.85;;;10.25;;
77409;SDS011;66481;51.332;22.804;2023-11-21T17:05:21;21.77;;;9.88;;
77409;SDS011;66481;51.332;22.804;2023-11-21T17:09:23;17.83;;;9.93;;
77409;SDS011;66481;51.332;22.804;2023-11-21T17:13:24;19.55;;;10.98;;
77409;SDS011;66481;51.332;22.804;2023-11-21T17:17:25;21.55;;;9.68;;
77409;SDS011;66481;51.332;22.804;2023-11-21T17:21:27;16.80;;;9.25;;
77409;SDS011;66481;51.332;22.804;2023-11-21T17:25:29;19.50;;;9.95;;
77409;SDS011;66481;51.332;22.804;2023-11-21T17:29:30;20.17;;;8.93;;
77409;SDS011;66481;51.332;22.804;2023-11-21T17:33:31;13.85;;;7.35;;
77409;SDS011;66481;51.332;22.804;2023-11-21T17:37:32;13.55;;;7.75;;
77409;SDS011;66481;51.332;22.804;2023-11-21T17:41:33;24.40;;;9.38;;
77409;SDS011;66481;51.332;22.804;2023-11-21T17:45:34;14.02;;;6.63;;
77409;SDS011;66481;51.332;22.804;2023-11-21T17:49:36;11.48;;;7.03;;
77409;SDS011;66481;51.332;22.804;2023-11-21T17:53:37;12.93;;;7.10;;
77409;SDS011;66481;51.332;22.804;2023-11-21T17:57:38;16.83;;;8.75;;
77409;SDS011;66481;51.332;22.804;2023-11-21T18:01:40;21.02;;;10.13;;
77409;SDS011;66481;51.332;22.804;2023-11-21T18:05:42;16.10;;;8.48;;
77409;SDS011;66481;51.332;22.804;2023-11-21T18:09:44;16.70;;;8.45;;
77409;SDS011;66481;51.332;22.804;2023-11-21T18:13:45;15.23;;;8.02;;
77409;SDS011;66481;51.332;22.804;2023-11-21T18:17:47;14.48;;;8.40;;
77409;SDS011;66481;51.332;22.804;2023-11-21T18:21:48;13.43;;;6.13;;
77409;SDS011;66481;51.332;22.804;2023-11-21T18:25:49;15.57;;;8.43;;
77409;SDS011;66481;51.332;22.804;2023-11-21T18:29:52;17.08;;;8.63;;
77409;SDS011;66481;51.332;22.804;2023-11-21T18:33:54;11.05;;;6.55;;
77409;SDS011;66481;51.332;22.804;2023-11-21T18:37:56;11.43;;;6.40;;
77409;SDS011;66481;51.332;22.804;2023-11-21T18:41:57;16.38;;;8.93;;
77409;SDS011;66481;51.332;22.804;2023-11-21T18:46:00;17.02;;;8.43;;
77409;SDS011;66481;51.332;22.804;2023-11-21T18:50:04;15.95;;;8.98;;
77409;SDS011;66481;51.332;22.804;2023-11-21T18:54:06;11.68;;;6.47;;
77409;SDS011;66481;51.332;22.804;2023-11-21T18:58:08;13.68;;;7.03;;
77409;SDS011;66481;51.332;22.804;2023-11-21T19:02:10;10.57;;;7.32;;
77409;SDS011;66481;51.332;22.804;2023-11-21T19:06:15;14.82;;;8.85;;
77409;SDS011;66481;51.332;22.804;2023-11-21T19:10:17;17.63;;;9.18;;
77409;SDS011;66481;51.332;22.804;2023-11-21T19:14:19;15.38;;;7.78;;
77409;SDS011;66481;51.332;22.804;2023-11-21T19:18:21;14.80;;;7.40;;
77409;SDS011;66481;51.332;22.804;2023-11-21T19:22:22;14.68;;;6.40;;
77409;SDS011;66481;51.332;22.804;2023-11-21T19:26:23;16.60;;;9.00;;
77409;SDS011;66481;51.332;22.804;2023-11-21T19:30:25;13.65;;;8.02;;
77409;SDS011;66481;51.332;22.804;2023-11-21T19:34:27;16.52;;;6.45;;
77409;SDS011;66481;51.332;22.804;2023-11-21T19:38:31;13.30;;;7.68;;
77409;SDS011;66481;51.332;22.804;2023-11-21T19:42:33;16.67;;;7.70;;
77409;SDS011;66481;51.332;22.804;2023-11-21T19:46:37;10.90;;;5.70;;
77409;SDS011;66481;51.332;22.804;2023-11-21T19:50:38;14.10;;;7.75;;
77409;SDS011;66481;51.332;22.804;2023-11-21T19:54:40;9.48;;;6.63;;
77409;SDS011;66481;51.332;22.804;2023-11-21T19:58:42;12.20;;;6.35;;
77409;SDS011;66481;51.332;22.804;2023-11-21T20:02:43;15.45;;;8.45;;
77409;SDS011;66481;51.332;22.804;2023-11-21T20:06:45;14.38;;;7.65;;
77409;SDS011;66481;51.332;22.804;2023-11-21T20:10:49;12.77;;;6.97;;
77409;SDS011;66481;51.332;22.804;2023-11-21T20:14:51;10.77;;;6.10;;
77409;SDS011;66481;51.332;22.804;2023-11-21T20:18:53;14.25;;;7.47;;
77409;SDS011;66481;51.332;22.804;2023-11-21T20:22:55;13.48;;;6.97;;
77409;SDS011;66481;51.332;22.804;2023-11-21T20:26:57;13.13;;;7.55;;
77409;SDS011;66481;51.332;22.804;2023-11-21T20:31:00;14.98;;;6.90;;
77409;SDS011;66481;51.332;22.804;2023-11-21T20:35:03;13.10;;;6.68;;
77409;SDS011;66481;51.332;22.804;2023-11-21T20:39:07;14.07;;;8.18;;
77409;SDS011;66481;51.332;22.804;2023-11-21T20:43:12;14.25;;;7.60;;
77409;SDS011;66481;51.332;22.804;2023-11-21T20:47:14;11.77;;;7.10;;
77409;SDS011;66481;51.332;22.804;2023-11-21T20:51:16;14.35;;;8.18;;
77409;SDS011;66481;51.332;22.804;2023-11-21T20:55:19;11.88;;;6.70;;
77409;SDS011;66481;51.332;22.804;2023-11-21T20:59:22;14.65;;;7.90;;
77409;SDS011;66481;51.332;22.804;2023-11-21T21:03:25;16.88;;;7.30;;
77409;SDS011;66481;51.332;22.804;2023-11-21T21:07:26;9.38;;;5.47;;
77409;SDS011;66481;51.332;22.804;2023-11-21T21:11:28;10.00;;;5.20;;
77409;SDS011;66481;51.332;22.804;2023-11-21T21:15:35;15.00;;;8.02;;
77409;SDS011;66481;51.332;22.804;2023-11-21T21:19:37;11.63;;;6.72;;
77409;SDS011;66481;51.332;22.804;2023-11-21T21:23:41;14.45;;;6.60;;
77409;SDS011;66481;51.332;22.804;2023-11-21T21:27:43;13.68;;;8.20;;
77409;SDS011;66481;51.332;22.804;2023-11-21T21:31:45;11.98;;;7.57;;
77409;SDS011;66481;51.332;22.804;2023-11-21T21:35:46;10.38;;;6.20;;
77409;SDS011;66481;51.332;22.804;2023-11-21T21:39:48;10.23;;;6.53;;
77409;SDS011;66481;51.332;22.804;2023-11-21T21:43:50;11.02;;;5.40;;
77409;SDS011;66481;51.332;22.804;2023-11-21T21:47:52;11.43;;;7.00;;
77409;SDS011;66481;51.332;22.804;2023-11-21T21:51:54;13.23;;;7.20;;
77409;SDS011;66481;51.332;22.804;2023-11-21T21:55:56;12.35;;;6.65;;
77409;SDS011;66481;51.332;22.804;2023-11-21T21:59:57;13.43;;;7.28;;
77409;SDS011;66481;51.332;22.804;2023-11-21T22:03:59;15.43;;;7.28;;
77409;SDS011;66481;51.332;22.804;2023-11-21T22:08:01;12.43;;;6.40;;
77409;SDS011;66481;51.332;22.804;2023-11-21T22:12:03;13.18;;;7.47;;
77409;SDS011;66481;51.332;22.804;2023-11-21T22:16:06;10.60;;;6.00;;
77409;SDS011;66481;51.332;22.804;2023-11-21T22:20:08;10.30;;;6.03;;
77409;SDS011;66481;51.332;22.804;2023-11-21T22:24:11;11.75;;;6.57;;
77409;SDS011;66481;51.332;22.804;2023-11-21T22:28:13;10.90;;;5.55;;
77409;SDS011;66481;51.332;22.804;2023-11-21T22:32:15;9.32;;;5.53;;
77409;SDS011;66481;51.332;22.804;2023-11-21T22:36:17;13.25;;;6.60;;
77409;SDS011;66481;51.332;22.804;2023-11-21T22:40:18;14.43;;;8.10;;
77409;SDS011;66481;51.332;22.804;2023-11-21T22:44:21;11.45;;;6.93;;
77409;SDS011;66481;51.332;22.804;2023-11-21T22:48:23;13.82;;;7.20;;
77409;SDS011;66481;51.332;22.804;2023-11-21T22:52:25;13.50;;;7.70;;
77409;SDS011;66481;51.332;22.804;2023-11-21T22:56:26;16.98;;;8.02;;
77409;SDS011;66481;51.332;22.804;2023-11-21T23:00:29;13.35;;;7.40;;
77409;SDS011;66481;51.332;22.804;2023-11-21T23:04:31;21.25;;;9.05;;
77409;SDS011;66481;51.332;22.804;2023-11-21T23:08:32;14.45;;;7.95;;
77409;SDS011;66481;51.332;22.804;2023-11-21T23:12:35;15.68;;;8.63;;
77409;SDS011;66481;51.332;22.804;2023-11-21T23:16:38;17.92;;;9.25;;
77409;SDS011;66481;51.332;22.804;2023-11-21T23:20:39;15.40;;;7.05;;
77409;SDS011;66481;51.332;22.804;2023-11-21T23:24:41;13.70;;;7.03;;
77409;SDS011;66481;51.332;22.804;2023-11-21T23:28:43;13.82;;;7.55;;
77409;SDS011;66481;51.332;22.804;2023-11-21T23:32:45;15.93;;;7.20;;
77409;SDS011;66481;51.332;22.804;2023-11-21T23:36:47;10.57;;;7.97;;
77409;SDS011;66481;51.332;22.804;2023-11-21T23:40:48;15.63;;;7.95;;
77409;SDS011;66481;51.332;22.804;2023-11-21T23:44:49;15.00;;;8.63;;
77409;SDS011;66481;51.332;22.804;2023-11-21T23:48:51;15.57;;;8.52;;